MET'MAP v2.0
soon released !

Expected late october,
this new version will be
more efficient, smarter,
and hosted on a brand new
server x3 powerfull...
...and still free !


Not compatible ?
Try the mobile version !

LOG IN : | Subscribe | Disclaimer | Who is Orbifly ? |
ICAO code :
Legend : VFR Marginal VFR IFR Intensive IFR Very Intensive IFR
Visi :
Ceiling :
>= 8 km
>= 3000ft
5 to 8 km
1000 to 3000 ft
1500m to 5 km
500 to 1000 ft
800 to 1500m
200 to 500 ft
< 800m
< 200 ft

METAR - LJCE Cerklje Airport - 29 May 2020 10:41 UTC - Data Source NOAA   


- Airport Elevation : 510 ft
- No reported NOTAMs.


LJCE - Cerklje Airport

Latest METAR recorded : 2015/08/11 08:00 LJCE 110800Z VRB01KT CAVOK 25/17 Q1014 RMK BLU
TAF TAF LJCE
Valid from the 29 at 09:00 until the 29 at 18:00 UTC


290800Z 2909/2918 06005KT 9999 BKN045
TEMPO 2911/2915 SHRA BKN035TCU

Source NOAA


MET'MAP, your aeronautical weather chart ! - Copyright ORBIFLY December 2007

Programming & Development : Alexandra Zaïnal
Co-Developer : Marc-Olivier Méhu
Technical & hardware support : Manuel Goepfert
Concept & Financing : Baudouin d'Aumeries